Route Details

Aircraft Information
Group: European Fleet
Types: A30F, B738
Route Data
Distance: 278nm
Duration: 0h 00m
Origin METAR: LEMD 142000Z 24011KT CAVOK 30/M00 Q1013 NOSIG
Dest. METAR: LPPT 142030Z 25010KT 9999 FEW020 21/18 Q1015
Freight Data
(for Jul 14, 2024)
Load Factor:
50%
Manifested Cargo: 48,116lbs
Financial History
Total Freight: 0lbs
Average Load: 0lbs/flt
Fuel Used: 0lbs
Avg. Fuel Used: 0lbs/flt
Fuel Expense: $0
Avg. Fuel Expense: $0
Avg. Fuel Cost: $0/lbs
Total Gross Income: $0
Pilot Pay: $0
Total Expenses: $0
Total Revenue: $0
Average Revenue: $0

Capitol Logistics 116




LEMD
Adolfo Suárez Madrid-Barajas International Airport
Madrid, ES
LPPT
Aeroporto da Portela de Sacavem
Lisbon, PT

Activity Log

Date Flight Route Aircraft Duration
No Flights Yet